createdAt,value
2019-04-01T00:00:40.970Z,8.00
2019-04-01T00:03:12.169Z,8.00
2019-04-01T00:05:43.392Z,7.90
2019-04-01T00:08:14.515Z,7.90
2019-04-01T00:10:45.800Z,7.90
2019-04-01T00:13:18.703Z,7.90
2019-04-01T00:15:50.119Z,7.70
2019-04-01T00:18:21.268Z,7.80
2019-04-01T00:20:52.810Z,7.80
2019-04-01T00:23:24.041Z,7.70
2019-04-01T00:25:55.415Z,7.60
2019-04-01T00:28:26.779Z,7.60
2019-04-01T00:30:57.933Z,7.50
2019-04-01T00:33:29.107Z,7.50
2019-04-01T00:36:01.303Z,7.50
2019-04-01T00:38:32.432Z,7.50
2019-04-01T00:41:04.256Z,7.50
2019-04-01T00:44:00.656Z,7.40
2019-04-01T00:46:33.100Z,7.40
2019-04-01T00:49:04.442Z,7.40
2019-04-01T00:51:36.212Z,7.30
2019-04-01T00:54:07.454Z,7.40
2019-04-01T00:56:38.569Z,7.40
2019-04-01T00:59:09.789Z,7.40
2019-04-01T01:01:41.083Z,7.40
2019-04-01T01:04:12.317Z,7.40
2019-04-01T01:06:43.473Z,7.30
2019-04-01T01:09:14.625Z,7.40
2019-04-01T01:11:46.111Z,7.30
2019-04-01T01:14:17.247Z,7.30
2019-04-01T01:16:48.727Z,7.20
2019-04-01T01:19:20.444Z,7.20
2019-04-01T01:21:51.654Z,7.20
2019-04-01T01:24:22.872Z,7.20
2019-04-01T01:26:54.482Z,7.20
2019-04-01T01:29:25.880Z,7.20
2019-04-01T01:31:57.322Z,7.10
2019-04-01T01:34:28.491Z,7.10
2019-04-01T01:36:59.751Z,7.00
2019-04-01T01:39:30.898Z,7.00
2019-04-01T01:42:02.040Z,8.00
2019-04-01T01:44:33.471Z,6.80
2019-04-01T01:47:04.672Z,6.80
2019-04-01T01:49:36.143Z,8.90
2019-04-01T01:52:07.711Z,6.70
2019-04-01T01:54:38.836Z,6.70
2019-04-01T01:57:10.284Z,6.70
2019-04-01T01:59:41.535Z,6.80
2019-04-01T02:02:12.744Z,6.80
2019-04-01T02:04:44.330Z,6.70
2019-04-01T02:07:16.104Z,6.70
2019-04-01T02:09:47.241Z,6.60
2019-04-01T02:12:18.380Z,6.60
2019-04-01T02:14:49.579Z,6.60
2019-04-01T02:17:21.162Z,6.60
2019-04-01T02:19:52.950Z,6.60
2019-04-01T02:22:24.081Z,6.50
2019-04-01T02:24:55.337Z,6.50
2019-04-01T02:27:26.499Z,6.50
2019-04-01T02:29:57.645Z,6.60
2019-04-01T02:32:28.891Z,6.50
2019-04-01T02:35:00.453Z,6.50
2019-04-01T02:37:31.808Z,6.50
2019-04-01T02:40:03.357Z,6.50
2019-04-01T02:42:34.979Z,6.50
2019-04-01T02:45:07.293Z,6.50
2019-04-01T02:47:38.431Z,6.40
2019-04-01T02:50:10.190Z,6.40
2019-04-01T02:52:41.635Z,6.30
2019-04-01T02:55:12.998Z,6.30
2019-04-01T02:57:45.261Z,6.30
2019-04-01T03:00:16.930Z,6.30
2019-04-01T03:02:48.284Z,6.40
2019-04-01T03:05:19.917Z,6.40
2019-04-01T03:07:51.344Z,6.40
2019-04-01T03:10:22.572Z,6.30
2019-04-01T03:12:53.862Z,6.20
2019-04-01T03:15:25.091Z,6.20
2019-04-01T03:17:56.635Z,6.20
2019-04-01T03:20:27.999Z,6.20
2019-04-01T03:22:59.470Z,6.10
2019-04-01T03:25:30.937Z,6.10
2019-04-01T03:28:02.064Z,6.00
2019-04-01T03:30:33.362Z,6.00
2019-04-01T03:33:05.579Z,6.10
2019-04-01T03:35:36.854Z,6.20
2019-04-01T03:38:07.989Z,6.00
2019-04-01T03:40:39.283Z,6.00
2019-04-01T03:43:10.691Z,6.00
2019-04-01T03:45:41.905Z,6.00
2019-04-01T03:48:13.052Z,5.90
2019-04-01T03:50:44.470Z,5.90
2019-04-01T03:53:15.654Z,5.90
2019-04-01T03:55:46.795Z,5.90
2019-04-01T03:58:18.081Z,5.90
2019-04-01T04:00:49.324Z,5.90
2019-04-01T04:03:20.428Z,5.80
2019-04-01T04:05:52.285Z,5.80
2019-04-01T04:08:23.425Z,5.70
2019-04-01T04:10:55.212Z,5.70
2019-04-01T04:13:27.373Z,5.90
2019-04-01T04:15:58.595Z,5.90
2019-04-01T04:18:31.446Z,5.90
2019-04-01T04:21:02.704Z,5.90
2019-04-01T04:23:33.910Z,5.90
2019-04-01T04:26:05.569Z,5.80
2019-04-01T04:28:36.716Z,5.80
2019-04-01T04:31:07.976Z,5.80
2019-04-01T04:33:39.280Z,5.80
2019-04-01T04:36:10.649Z,5.80
2019-04-01T04:38:42.455Z,5.80
2019-04-01T04:41:13.875Z,5.80
2019-04-01T04:43:45.153Z,5.70
2019-04-01T04:46:20.700Z,5.70
2019-04-01T04:48:49.653Z,5.70
2019-04-01T04:51:21.429Z,5.70
2019-04-01T04:53:53.456Z,5.70
2019-04-01T04:56:24.806Z,5.70
2019-04-01T04:58:56.229Z,5.70
2019-04-01T05:01:27.600Z,5.70
2019-04-01T05:03:58.889Z,5.70
2019-04-01T05:06:30.182Z,5.70
2019-04-01T05:09:01.411Z,5.70
2019-04-01T05:11:34.042Z,5.60
2019-04-01T05:14:05.443Z,5.60
2019-04-01T05:16:36.572Z,5.60
2019-04-01T05:19:07.945Z,5.60
2019-04-01T05:21:39.737Z,5.70
2019-04-01T05:24:11.491Z,5.70
2019-04-01T05:26:45.270Z,5.70
2019-04-01T05:29:18.052Z,5.80
2019-04-01T05:31:50.331Z,5.90
2019-04-01T05:34:22.667Z,5.90
2019-04-01T05:36:53.966Z,6.00
2019-04-01T05:39:25.575Z,6.00
2019-04-01T05:41:56.816Z,6.10
2019-04-01T05:44:28.619Z,6.10
2019-04-01T05:47:00.156Z,6.20
2019-04-01T05:49:33.075Z,6.30
2019-04-01T05:52:04.451Z,6.40
2019-04-01T05:54:35.814Z,6.50
2019-04-01T05:57:07.457Z,6.60
2019-04-01T05:59:38.835Z,6.70
2019-04-01T06:02:10.607Z,6.40
2019-04-01T06:04:41.987Z,7.00
2019-04-01T06:07:13.337Z,7.10
2019-04-01T06:09:44.729Z,7.30
2019-04-01T06:12:16.357Z,7.30
2019-04-01T06:14:48.447Z,7.50
2019-04-01T06:17:19.793Z,7.60
2019-04-01T06:19:51.707Z,7.70
2019-04-01T06:22:24.028Z,7.80
2019-04-01T06:24:56.961Z,8.00
2019-04-01T06:27:28.780Z,8.10
2019-04-01T06:30:00.563Z,8.30
2019-04-01T06:32:32.036Z,8.40
2019-04-01T06:35:05.962Z,8.60
2019-04-01T06:37:37.321Z,8.80
2019-04-01T06:40:09.001Z,8.90
2019-04-01T06:42:40.875Z,9.00
2019-04-01T06:45:12.327Z,9.20
2019-04-01T06:47:44.080Z,9.30
2019-04-01T06:50:15.795Z,9.40
2019-04-01T06:52:47.306Z,9.60
2019-04-01T06:55:18.729Z,9.70
2019-04-01T06:57:50.190Z,8.90
2019-04-01T07:00:21.916Z,10.10
2019-04-01T07:02:54.675Z,10.20
2019-04-01T07:05:26.404Z,10.40
2019-04-01T07:07:58.145Z,10.50
2019-04-01T07:10:29.975Z,10.70
2019-04-01T07:13:01.361Z,10.90
2019-04-01T07:15:32.805Z,11.00
2019-04-01T07:18:04.459Z,11.30
2019-04-01T07:20:35.918Z,11.40
2019-04-01T07:23:07.651Z,11.60
2019-04-01T07:25:39.097Z,11.70
2019-04-01T07:28:10.917Z,11.90
2019-04-01T07:30:42.437Z,12.10
2019-04-01T07:33:14.071Z,12.20
2019-04-01T07:35:46.818Z,12.50
2019-04-01T07:38:19.819Z,12.70
2019-04-01T07:40:51.516Z,12.90
2019-04-01T07:43:23.423Z,12.90
2019-04-01T07:45:54.861Z,13.00
2019-04-01T07:48:26.470Z,13.30
2019-04-01T07:50:58.342Z,13.30
2019-04-01T07:53:29.773Z,12.80
2019-04-01T07:56:02.769Z,12.60
2019-04-01T07:58:35.225Z,12.20
2019-04-01T08:01:06.703Z,12.40
2019-04-01T08:03:41.798Z,13.00
2019-04-01T08:06:13.152Z,13.50
2019-04-01T08:08:46.342Z,13.70
2019-04-01T08:11:17.805Z,14.00
2019-04-01T08:13:49.683Z,14.10
2019-04-01T08:16:21.148Z,13.90
2019-04-01T08:18:52.754Z,13.60
2019-04-01T08:21:24.677Z,13.10
2019-04-01T08:23:56.204Z,13.30
2019-04-01T08:26:28.116Z,13.80
2019-04-01T08:28:59.977Z,14.30
2019-04-01T08:31:31.636Z,14.20
2019-04-01T08:34:03.319Z,13.60
2019-04-01T08:36:35.197Z,13.20
2019-04-01T08:39:14.233Z,13.60
2019-04-01T08:41:45.831Z,13.70
2019-04-01T08:44:17.529Z,13.50
2019-04-01T08:46:48.990Z,13.30
2019-04-01T08:49:20.408Z,13.30
2019-04-01T08:51:52.140Z,13.80
2019-04-01T08:54:23.615Z,14.60
2019-04-01T08:56:55.300Z,14.40
2019-04-01T08:59:27.465Z,14.50
2019-04-01T09:01:58.820Z,14.90
2019-04-01T09:04:30.856Z,15.50
2019-04-01T09:07:02.191Z,15.60
2019-04-01T09:09:34.841Z,15.70
2019-04-01T09:12:06.470Z,15.60
2019-04-01T09:14:38.325Z,15.60
2019-04-01T09:17:09.785Z,15.80
2019-04-01T09:19:41.213Z,15.80
2019-04-01T09:22:12.661Z,16.10
2019-04-01T09:24:53.607Z,16.50
2019-04-01T09:27:25.287Z,16.20
2019-04-01T09:29:56.557Z,16.20
2019-04-01T09:32:28.604Z,16.10
2019-04-01T09:35:00.521Z,16.00
2019-04-01T09:37:31.987Z,16.30
2019-04-01T09:40:03.404Z,16.40
2019-04-01T09:42:34.929Z,16.80
2019-04-01T09:45:07.516Z,17.00
2019-04-01T09:47:40.008Z,17.00
2019-04-01T09:50:12.039Z,16.70
2019-04-01T09:52:43.413Z,16.80
2019-04-01T09:55:15.022Z,16.30
2019-04-01T09:57:46.395Z,16.60
2019-04-01T10:00:18.769Z,17.10
2019-04-01T10:02:50.215Z,17.40
2019-04-01T10:05:21.608Z,17.10
2019-04-01T10:07:52.972Z,16.90
2019-04-01T10:10:24.648Z,16.90
2019-04-01T10:12:56.649Z,16.80
2019-04-01T10:15:28.082Z,17.00
2019-04-01T10:17:59.552Z,17.40
2019-04-01T10:20:30.911Z,17.60
2019-04-01T10:23:02.313Z,17.60
2019-04-01T10:25:33.534Z,18.00
2019-04-01T10:28:05.152Z,17.80
2019-04-01T10:30:36.637Z,18.10
2019-04-01T10:33:08.777Z,18.40
2019-04-01T10:35:40.202Z,18.40
2019-04-01T10:38:11.660Z,18.50
2019-04-01T10:40:42.996Z,18.70
2019-04-01T10:43:14.474Z,18.70
2019-04-01T10:45:47.050Z,19.00
2019-04-01T10:48:18.827Z,19.30
2019-04-01T10:50:50.445Z,19.60
2019-04-01T10:53:22.056Z,19.60
2019-04-01T10:55:53.473Z,19.50
2019-04-01T10:58:25.012Z,19.50
2019-04-01T11:00:56.661Z,19.10
2019-04-01T11:03:28.068Z,19.30
2019-04-01T11:05:59.551Z,19.50
2019-04-01T11:08:31.519Z,19.40
2019-04-01T11:11:02.802Z,19.20
2019-04-01T11:13:34.936Z,19.10
2019-04-01T11:16:06.277Z,19.10
2019-04-01T11:18:37.737Z,19.40
2019-04-01T11:21:09.186Z,19.80
2019-04-01T11:23:40.664Z,20.20
2019-04-01T11:26:12.102Z,20.40
2019-04-01T11:28:43.587Z,20.30
2019-04-01T11:31:15.093Z,20.60
2019-04-01T11:33:47.016Z,20.90
2019-04-01T11:36:18.374Z,21.10
2019-04-01T11:38:50.076Z,21.00
2019-04-01T11:41:21.631Z,21.10
2019-04-01T11:43:53.431Z,21.00
2019-04-01T11:46:25.043Z,21.40
2019-04-01T11:48:56.545Z,21.70
2019-04-01T11:51:32.976Z,21.40
2019-04-01T11:54:01.960Z,21.50
2019-04-01T11:56:33.276Z,21.30
2019-04-01T11:59:04.716Z,21.30
2019-04-01T12:01:36.829Z,21.40
2019-04-01T12:04:08.525Z,21.20
2019-04-01T12:06:40.073Z,21.10
2019-04-01T12:09:11.496Z,21.10
2019-04-01T12:11:42.953Z,21.40
2019-04-01T12:14:14.799Z,21.60
2019-04-01T12:16:46.146Z,21.60
2019-04-01T12:19:18.246Z,21.90
2019-04-01T12:21:50.183Z,21.50
2019-04-01T12:24:21.720Z,21.10
2019-04-01T12:26:53.067Z,21.30
2019-04-01T12:29:24.333Z,21.60
2019-04-01T12:31:55.658Z,20.90
2019-04-01T12:34:27.505Z,20.70
2019-04-01T12:36:59.163Z,20.90
2019-04-01T12:39:30.523Z,21.00
2019-04-01T12:42:01.992Z,20.80
2019-04-01T12:44:33.715Z,20.90
2019-04-01T12:47:05.271Z,21.00
2019-04-01T12:49:36.905Z,20.90
2019-04-01T12:52:08.125Z,21.30
2019-04-01T12:54:39.275Z,21.50
2019-04-01T12:57:10.504Z,20.80
2019-04-01T12:59:42.351Z,20.70
2019-04-01T13:02:18.013Z,20.70
2019-04-01T13:04:51.242Z,21.10
2019-04-01T13:07:22.089Z,21.50
2019-04-01T13:09:53.407Z,21.60
2019-04-01T13:12:27.282Z,21.20
2019-04-01T13:14:57.887Z,20.80
2019-04-01T13:17:29.038Z,20.90
2019-04-01T13:20:00.331Z,20.80
2019-04-01T13:22:31.564Z,20.90
2019-04-01T13:25:05.624Z,21.20
2019-04-01T13:27:36.234Z,21.10
2019-04-01T13:30:08.920Z,21.10
2019-04-01T13:32:40.140Z,20.90
2019-04-01T13:35:11.619Z,20.10
2019-04-01T13:37:42.852Z,19.80
2019-04-01T13:40:15.263Z,19.90
2019-04-01T13:42:46.878Z,20.30
2019-04-01T13:45:18.249Z,20.60
2019-04-01T13:47:49.646Z,20.60
2019-04-01T13:50:21.536Z,20.30
2019-04-01T13:52:52.748Z,20.40
2019-04-01T13:55:24.018Z,20.50
2019-04-01T13:57:55.166Z,20.60
2019-04-01T14:00:27.497Z,20.90
2019-04-01T14:02:59.631Z,21.10
2019-04-01T14:05:31.838Z,21.40
2019-04-01T14:08:05.706Z,21.00
2019-04-01T14:10:36.015Z,20.50
2019-04-01T14:13:07.386Z,20.60
2019-04-01T14:15:38.619Z,21.20
2019-04-01T14:18:10.241Z,21.60
2019-04-01T14:20:42.365Z,21.50
2019-04-01T14:23:14.015Z,21.20
2019-04-01T14:25:46.224Z,20.70
2019-04-01T14:28:17.433Z,20.00
2019-04-01T14:30:48.858Z,19.80
2019-04-01T14:33:20.108Z,19.70
2019-04-01T14:35:51.623Z,20.10
2019-04-01T14:38:22.750Z,19.60
2019-04-01T14:40:53.973Z,19.60
2019-04-01T14:43:25.176Z,19.70
2019-04-01T14:45:56.648Z,19.60
2019-04-01T14:48:27.942Z,19.40
2019-04-01T14:50:59.243Z,19.50
2019-04-01T14:53:30.377Z,19.50
2019-04-01T14:56:01.521Z,19.60
2019-04-01T14:58:33.034Z,19.30
2019-04-01T15:01:05.342Z,19.30
2019-04-01T15:03:36.694Z,19.20
2019-04-01T15:06:08.520Z,19.10
2019-04-01T15:08:39.957Z,19.40
2019-04-01T15:11:12.409Z,19.60
2019-04-01T15:13:43.955Z,19.40
2019-04-01T15:16:15.276Z,19.20
2019-04-01T15:18:46.569Z,19.00
2019-04-01T15:21:18.195Z,19.20
2019-04-01T15:23:49.338Z,18.90
2019-04-01T15:26:21.643Z,19.00
2019-04-01T15:28:52.883Z,19.40
2019-04-01T15:31:24.526Z,19.30
2019-04-01T15:33:56.592Z,19.10
2019-04-01T15:36:27.830Z,19.30
2019-04-01T15:38:59.136Z,19.10
2019-04-01T15:41:30.398Z,19.20
2019-04-01T15:44:01.674Z,19.10
2019-04-01T15:46:32.848Z,18.80
2019-04-01T15:49:04.528Z,18.60
2019-04-01T15:51:36.107Z,18.30
2019-04-01T15:54:08.051Z,17.90
2019-04-01T15:56:41.875Z,17.20
2019-04-01T15:59:12.138Z,16.70
2019-04-01T16:01:43.822Z,16.40
2019-04-01T16:04:16.560Z,16.30
2019-04-01T16:06:48.074Z,16.50
2019-04-01T16:09:19.319Z,16.30
2019-04-01T16:11:53.849Z,16.00
2019-04-01T16:14:23.810Z,15.70
2019-04-01T16:16:54.966Z,15.50
2019-04-01T16:19:26.486Z,15.60
2019-04-01T16:21:57.866Z,15.80
2019-04-01T16:24:29.092Z,16.00
2019-04-01T16:27:00.454Z,16.20
2019-04-01T16:29:31.569Z,16.10
2019-04-01T16:32:03.078Z,15.80
2019-04-01T16:34:34.843Z,15.50
2019-04-01T16:37:06.501Z,15.20
2019-04-01T16:39:37.729Z,15.00
2019-04-01T16:42:08.970Z,14.80
2019-04-01T16:44:40.218Z,14.70
2019-04-01T16:47:14.342Z,14.60
2019-04-01T16:49:44.521Z,14.70
2019-04-01T16:52:15.885Z,14.80
2019-04-01T16:54:59.839Z,14.90
2019-04-01T16:57:31.061Z,14.90
2019-04-01T17:00:02.282Z,14.90
2019-04-01T17:02:33.513Z,14.90
2019-04-01T17:05:05.406Z,14.90
2019-04-01T17:07:36.835Z,14.80
2019-04-01T17:10:08.682Z,14.60
2019-04-01T17:12:39.976Z,14.60
2019-04-01T17:15:11.815Z,14.50
2019-04-01T17:17:43.050Z,14.40
2019-04-01T17:20:14.527Z,14.20
2019-04-01T17:22:45.911Z,14.00
2019-04-01T17:25:17.618Z,13.90
2019-04-01T17:27:48.948Z,13.70
2019-04-01T17:30:21.341Z,13.60
2019-04-01T17:32:52.649Z,13.50
2019-04-01T17:35:23.930Z,13.30
2019-04-01T17:37:55.341Z,13.20
2019-04-01T17:40:26.636Z,13.00
2019-04-01T17:42:58.288Z,12.90
2019-04-01T17:45:34.929Z,12.70
2019-04-01T17:48:07.277Z,12.70
2019-04-01T17:50:38.996Z,12.60
2019-04-01T17:53:12.994Z,12.50
2019-04-01T17:55:45.762Z,12.40
2019-04-01T17:58:17.431Z,12.50
2019-04-01T18:00:59.887Z,12.50
2019-04-01T18:03:31.243Z,12.50
2019-04-01T18:06:02.502Z,12.50
2019-04-01T18:08:34.215Z,12.40
2019-04-01T18:11:05.771Z,12.40
2019-04-01T18:13:36.929Z,12.30
2019-04-01T18:16:08.528Z,12.30
2019-04-01T18:18:40.331Z,12.30
2019-04-01T18:21:11.621Z,12.20
2019-04-01T18:23:43.121Z,12.20
2019-04-01T18:26:14.406Z,12.10
2019-04-01T18:28:45.914Z,12.00
2019-04-01T18:31:18.634Z,12.00
2019-04-01T18:33:56.371Z,11.90
2019-04-01T18:36:23.543Z,11.80
2019-04-01T18:38:54.832Z,11.70
2019-04-01T18:41:29.781Z,11.60
2019-04-01T18:44:01.067Z,11.60
2019-04-01T18:46:33.390Z,12.10
2019-04-01T18:49:04.810Z,11.40
2019-04-01T18:51:36.907Z,11.40
2019-04-01T18:54:08.346Z,11.40
2019-04-01T18:56:39.652Z,11.30
2019-04-01T18:59:11.227Z,11.30
2019-04-01T19:01:43.300Z,11.30
2019-04-01T19:04:15.663Z,11.20
2019-04-01T19:06:49.750Z,11.10
2019-04-01T19:09:19.833Z,11.00
2019-04-01T19:12:03.372Z,10.90
2019-04-01T19:14:24.037Z,10.80
2019-04-01T19:16:55.327Z,10.70
2019-04-01T19:19:26.706Z,10.60
2019-04-01T19:21:57.865Z,10.60
2019-04-01T19:24:29.147Z,10.40
2019-04-01T19:27:00.298Z,10.40
2019-04-01T19:29:31.468Z,10.40
2019-04-01T19:32:02.770Z,10.30
2019-04-01T19:34:33.947Z,10.30
2019-04-01T19:37:05.185Z,10.30
2019-04-01T19:39:36.343Z,10.30
2019-04-01T19:42:08.124Z,10.20
2019-04-01T19:44:39.483Z,10.20
2019-04-01T19:47:11.786Z,10.20
2019-04-01T19:49:43.160Z,10.10
2019-04-01T19:52:14.453Z,10.00
2019-04-01T19:54:46.324Z,10.00
2019-04-01T19:57:17.860Z,9.90
2019-04-01T19:59:49.810Z,9.90
2019-04-01T20:02:21.042Z,9.90
2019-04-01T20:04:52.538Z,9.80
2019-04-01T20:07:23.665Z,9.80
2019-04-01T20:09:54.986Z,9.70
2019-04-01T20:12:26.280Z,9.60
2019-04-01T20:14:58.955Z,9.60
2019-04-01T20:17:30.295Z,9.60
2019-04-01T20:20:02.530Z,9.50
2019-04-01T20:22:34.149Z,9.50
2019-04-01T20:25:09.831Z,9.40
2019-04-01T20:27:44.337Z,9.30
2019-04-01T20:30:29.644Z,9.30
2019-04-01T20:33:01.178Z,9.30
2019-04-01T20:35:34.688Z,9.20
2019-04-01T20:38:06.053Z,9.20
2019-04-01T20:40:38.450Z,9.10
2019-04-01T20:43:11.152Z,9.10
2019-04-01T20:45:42.911Z,9.20
2019-04-01T20:48:15.504Z,9.10
2019-04-01T20:50:46.939Z,9.00
2019-04-01T20:53:19.037Z,9.00
2019-04-01T20:55:50.811Z,9.00
2019-04-01T20:58:22.524Z,9.00
2019-04-01T21:00:54.200Z,8.90
2019-04-01T21:03:27.230Z,8.90
2019-04-01T21:05:59.520Z,8.90
2019-04-01T21:08:30.843Z,8.80
2019-04-01T21:11:02.145Z,8.80
2019-04-01T21:13:35.720Z,8.70
2019-04-01T21:16:07.089Z,8.60
2019-04-01T21:18:38.695Z,8.60
2019-04-01T21:21:10.457Z,8.60
2019-04-01T21:23:41.895Z,8.50
2019-04-01T21:26:13.162Z,8.40
2019-04-01T21:28:44.446Z,8.40
2019-04-01T21:31:16.349Z,8.40
2019-04-01T21:33:50.928Z,8.30
2019-04-01T21:36:22.212Z,8.20
2019-04-01T21:38:53.938Z,8.10
2019-04-01T21:41:25.846Z,8.10
2019-04-01T21:43:58.097Z,8.10
2019-04-01T21:46:29.276Z,8.20
2019-04-01T21:49:00.422Z,8.30
2019-04-01T21:51:32.978Z,8.20
2019-04-01T21:54:04.575Z,8.20
2019-04-01T21:56:36.064Z,8.20
2019-04-01T21:59:07.480Z,8.10
2019-04-01T22:01:38.871Z,8.10
2019-04-01T22:04:11.272Z,8.10
2019-04-01T22:06:42.938Z,8.00
2019-04-01T22:09:14.494Z,8.00
2019-04-01T22:11:45.819Z,8.00
2019-04-01T22:14:17.045Z,7.90
2019-04-01T22:16:48.721Z,7.90
2019-04-01T22:19:20.272Z,7.90
2019-04-01T22:21:51.690Z,7.90
2019-04-01T22:24:22.934Z,7.80
2019-04-01T22:26:54.159Z,7.70
2019-04-01T22:29:25.466Z,7.70
2019-04-01T22:31:56.616Z,7.60
2019-04-01T22:34:28.213Z,7.50
2019-04-01T22:36:59.436Z,7.50
2019-04-01T22:39:30.760Z,7.40
2019-04-01T22:42:02.272Z,7.40
2019-04-01T22:44:33.423Z,7.40
2019-04-01T22:47:04.730Z,7.30
2019-04-01T22:49:35.857Z,7.30
2019-04-01T22:52:07.313Z,7.30
2019-04-01T22:54:38.461Z,7.30
2019-04-01T22:57:09.729Z,7.30
2019-04-01T22:59:40.888Z,7.30
2019-04-01T23:02:13.506Z,7.20
2019-04-01T23:04:45.205Z,7.20
2019-04-01T23:07:16.376Z,7.20
2019-04-01T23:09:47.609Z,7.20
2019-04-01T23:12:18.778Z,7.20
2019-04-01T23:14:50.358Z,7.20
2019-04-01T23:17:21.872Z,7.30
2019-04-01T23:19:53.399Z,7.20
2019-04-01T23:22:25.006Z,7.10
2019-04-01T23:24:57.432Z,7.00
2019-04-01T23:27:28.956Z,6.90
2019-04-01T23:30:00.318Z,6.90
2019-04-01T23:32:31.477Z,6.80
2019-04-01T23:35:03.039Z,6.80
2019-04-01T23:37:34.499Z,6.60
2019-04-01T23:40:06.776Z,6.40
2019-04-01T23:42:38.278Z,6.40
2019-04-01T23:45:10.478Z,6.30
2019-04-01T23:47:41.696Z,6.20
2019-04-01T23:50:13.431Z,6.10
2019-04-01T23:52:44.806Z,6.00
2019-04-01T23:55:16.279Z,6.10
2019-04-01T23:57:47.552Z,6.10
